createdAt,value
2023-03-28T00:01:07.487Z,100483.25
2023-03-28T00:03:36.329Z,100474.63
2023-03-28T00:06:05.614Z,100476.28
2023-03-28T00:08:33.583Z,100471.78
2023-03-28T00:11:04.490Z,100474.50
2023-03-28T00:13:33.611Z,100480.31
2023-03-28T00:16:05.743Z,100481.78
2023-03-28T00:18:38.992Z,100475.25
2023-03-28T00:21:09.985Z,100472.84
2023-03-28T00:23:37.306Z,100474.69
2023-03-28T00:26:08.632Z,100474.69
2023-03-28T00:28:37.979Z,100477.63
2023-03-28T00:31:05.822Z,100480.41
2023-03-28T00:33:33.178Z,100467.63
2023-03-28T00:36:00.653Z,100475.91
2023-03-28T00:38:28.654Z,100474.84
2023-03-28T00:40:57.646Z,100476.66
2023-03-28T00:43:40.083Z,100479.25
2023-03-28T00:46:09.668Z,100467.56
2023-03-28T00:48:37.526Z,100473.50
2023-03-28T00:51:05.607Z,100466.47
2023-03-28T00:53:33.872Z,100467.97
2023-03-28T00:56:04.146Z,100463.91
2023-03-28T00:58:32.922Z,100463.84
2023-03-28T01:01:01.664Z,100461.50
2023-03-28T01:03:30.859Z,100467.50
2023-03-28T01:05:58.990Z,100461.13
2023-03-28T01:08:29.243Z,100454.94
2023-03-28T01:10:56.591Z,100469.88
2023-03-28T01:13:26.369Z,100459.97
2023-03-28T01:15:53.776Z,100470.81
2023-03-28T01:18:23.846Z,100461.19
2023-03-28T01:21:02.964Z,100477.28
2023-03-28T01:23:44.077Z,100472.34
2023-03-28T01:26:26.999Z,100470.16
2023-03-28T01:29:01.420Z,100484.34
2023-03-28T01:31:46.246Z,100493.31
2023-03-28T01:34:26.186Z,100495.97
2023-03-28T01:37:06.695Z,100490.38
2023-03-28T01:39:46.764Z,100476.22
2023-03-28T01:42:20.466Z,100492.00
2023-03-28T01:44:50.372Z,100506.94
2023-03-28T01:47:20.516Z,100494.16
2023-03-28T01:49:51.991Z,100503.38
2023-03-28T01:52:23.738Z,100507.22
2023-03-28T01:54:55.866Z,100515.88
2023-03-28T01:57:25.881Z,100501.31
2023-03-28T01:59:56.723Z,100516.56
2023-03-28T02:02:27.336Z,100517.53
2023-03-28T02:04:57.401Z,100511.50
2023-03-28T02:07:27.097Z,100518.53
2023-03-28T02:09:55.854Z,100523.94
2023-03-28T02:12:25.275Z,100525.50
2023-03-28T02:14:53.949Z,100518.84
2023-03-28T02:17:23.411Z,100527.50
2023-03-28T02:19:53.544Z,100526.63
2023-03-28T02:22:24.002Z,100530.97
2023-03-28T02:24:52.614Z,100530.47
2023-03-28T02:27:20.958Z,100524.84
2023-03-28T02:29:49.282Z,100531.78
2023-03-28T02:32:16.791Z,100525.44
2023-03-28T02:34:45.497Z,100523.16
2023-03-28T02:37:16.889Z,100522.72
2023-03-28T02:39:51.492Z,100527.78
2023-03-28T02:42:39.754Z,100526.19
2023-03-28T02:45:19.946Z,100525.88
2023-03-28T02:47:53.175Z,100529.25
2023-03-28T02:50:26.459Z,100525.44
2023-03-28T02:52:56.377Z,100544.56
2023-03-28T02:55:26.352Z,100545.09
2023-03-28T02:57:56.714Z,100538.84
2023-03-28T03:00:25.309Z,100545.91
2023-03-28T03:02:52.881Z,100546.47
2023-03-28T03:05:21.082Z,100540.09
2023-03-28T03:07:49.657Z,100548.44
2023-03-28T03:10:17.900Z,100550.00
2023-03-28T03:12:45.298Z,100533.28
2023-03-28T03:15:12.903Z,100550.28
2023-03-28T03:17:41.682Z,100539.59
2023-03-28T03:20:09.776Z,100531.53
2023-03-28T03:22:37.313Z,100544.13
2023-03-28T03:25:06.641Z,100543.09
2023-03-28T03:27:34.483Z,100549.38
2023-03-28T03:30:01.824Z,100552.31
2023-03-28T03:32:29.166Z,100546.84
2023-03-28T03:34:57.894Z,100570.31
2023-03-28T03:37:25.225Z,100576.88
2023-03-28T03:39:52.492Z,100583.28
2023-03-28T03:42:19.755Z,100586.13
2023-03-28T03:44:47.001Z,100589.78
2023-03-28T03:47:14.961Z,100593.88
2023-03-28T03:49:42.209Z,100604.63
2023-03-28T03:52:10.805Z,100617.75
2023-03-28T03:54:38.398Z,100618.59
2023-03-28T03:57:06.162Z,100615.59
2023-03-28T03:59:33.524Z,100611.13
2023-03-28T04:02:00.986Z,100611.88
2023-03-28T04:04:28.469Z,100615.97
2023-03-28T04:06:58.049Z,100629.50
2023-03-28T04:09:27.934Z,100629.31
2023-03-28T04:11:55.233Z,100642.38
2023-03-28T04:14:22.885Z,100655.59
2023-03-28T04:16:50.771Z,100653.78
2023-03-28T04:19:19.049Z,100652.91
2023-03-28T04:21:48.032Z,100654.16
2023-03-28T04:24:15.635Z,100664.59
2023-03-28T04:26:45.923Z,100666.50
2023-03-28T04:29:13.641Z,100673.44
2023-03-28T04:31:40.964Z,100675.41
2023-03-28T04:34:08.876Z,100682.78
2023-03-28T04:36:37.604Z,100676.56
2023-03-28T04:39:05.125Z,100684.53
2023-03-28T04:41:33.104Z,100692.03
2023-03-28T04:44:02.725Z,100690.47
2023-03-28T04:46:30.433Z,100693.16
2023-03-28T04:48:57.691Z,100707.31
2023-03-28T04:51:25.295Z,100704.72
2023-03-28T04:53:52.694Z,100716.84
2023-03-28T04:56:20.071Z,100723.16
2023-03-28T04:58:47.328Z,100725.50
2023-03-28T05:01:15.939Z,100728.41
2023-03-28T05:03:43.223Z,100733.69
2023-03-28T05:06:10.760Z,100733.22
2023-03-28T05:08:38.330Z,100732.97
2023-03-28T05:11:05.735Z,100744.34
2023-03-28T05:13:34.736Z,100754.59
2023-03-28T05:16:02.037Z,100746.63
2023-03-28T05:18:30.649Z,100757.13
2023-03-28T05:20:58.063Z,100768.59
2023-03-28T05:23:25.895Z,100767.13
2023-03-28T05:25:53.690Z,100768.59
2023-03-28T05:28:21.232Z,100784.47
2023-03-28T05:30:48.804Z,100777.56
2023-03-28T05:33:16.194Z,100789.81
2023-03-28T05:35:44.902Z,100793.31
2023-03-28T05:38:12.329Z,100794.28
2023-03-28T05:40:39.602Z,100804.09
2023-03-28T05:43:06.988Z,100796.66
2023-03-28T05:45:34.307Z,100817.00
2023-03-28T05:48:01.611Z,100810.09
2023-03-28T05:50:29.030Z,100815.16
2023-03-28T05:52:57.663Z,100819.28
2023-03-28T05:55:24.975Z,100815.75
2023-03-28T05:57:52.684Z,100816.72
2023-03-28T06:00:20.317Z,100823.59
2023-03-28T06:02:47.683Z,100828.13
2023-03-28T06:05:15.076Z,100829.38
2023-03-28T06:07:43.293Z,100836.56
2023-03-28T06:10:13.102Z,100838.59
2023-03-28T06:12:40.637Z,100843.38
2023-03-28T06:15:08.373Z,100858.09
2023-03-28T06:17:35.740Z,100868.44
2023-03-28T06:20:04.225Z,100862.25
2023-03-28T06:22:31.546Z,100872.06
2023-03-28T06:24:59.224Z,100882.28
2023-03-28T06:27:27.852Z,100883.00
2023-03-28T06:29:55.188Z,100878.25
2023-03-28T06:32:22.554Z,100881.13
2023-03-28T06:34:49.907Z,100885.72
2023-03-28T06:37:17.279Z,100899.06
2023-03-28T06:39:44.552Z,100893.50
2023-03-28T06:42:11.814Z,100901.44
2023-03-28T06:44:40.705Z,100902.16
2023-03-28T06:47:07.989Z,100908.47
2023-03-28T06:49:35.320Z,100909.41
2023-03-28T06:52:02.877Z,100925.28
2023-03-28T06:54:30.468Z,100919.47
2023-03-28T06:56:57.768Z,100922.94
2023-03-28T06:59:25.401Z,100914.00
2023-03-28T07:01:54.023Z,100910.09
2023-03-28T07:04:21.338Z,100922.31
2023-03-28T07:06:49.329Z,100933.16
2023-03-28T07:09:16.714Z,100935.53
2023-03-28T07:11:44.001Z,100936.13
2023-03-28T07:14:11.272Z,100931.56
2023-03-28T07:16:38.621Z,100927.59
2023-03-28T07:19:07.561Z,100935.88
2023-03-28T07:21:35.056Z,100948.34
2023-03-28T07:24:02.383Z,100947.38
2023-03-28T07:26:29.796Z,100944.69
2023-03-28T07:28:57.076Z,100952.91
2023-03-28T07:31:25.717Z,100946.56
2023-03-28T07:33:53.051Z,100950.47
2023-03-28T07:36:22.515Z,100966.69
2023-03-28T07:38:49.898Z,100958.84
2023-03-28T07:41:17.319Z,100969.78
2023-03-28T07:43:45.006Z,100976.91
2023-03-28T07:46:14.273Z,100969.50
2023-03-28T07:48:42.111Z,100973.00
2023-03-28T07:51:09.998Z,100972.72
2023-03-28T07:53:39.018Z,100974.78
2023-03-28T07:56:10.474Z,100973.09
2023-03-28T07:58:38.412Z,100993.63
2023-03-28T08:01:06.423Z,100991.00
2023-03-28T08:03:33.865Z,100996.00
2023-03-28T08:06:02.809Z,100988.34
2023-03-28T08:08:30.773Z,100994.72
2023-03-28T08:11:00.076Z,100987.06
2023-03-28T08:13:27.640Z,101002.50
2023-03-28T08:15:55.912Z,101006.75
2023-03-28T08:18:25.051Z,100996.50
2023-03-28T08:20:57.989Z,101008.75
2023-03-28T08:23:26.488Z,101008.81
2023-03-28T08:25:54.355Z,101020.97
2023-03-28T08:28:22.968Z,101021.91
2023-03-28T08:30:50.282Z,101014.28
2023-03-28T08:33:17.613Z,101019.13
2023-03-28T08:35:44.977Z,101013.19
2023-03-28T08:38:13.252Z,101017.25
2023-03-28T08:40:46.571Z,101017.78
2023-03-28T08:43:24.506Z,101022.97
2023-03-28T08:45:54.839Z,101028.47
2023-03-28T08:48:27.012Z,101016.25
2023-03-28T08:50:58.737Z,101030.00
2023-03-28T08:53:30.274Z,101033.03
2023-03-28T08:55:58.428Z,101029.72
2023-03-28T08:58:28.180Z,101040.09
2023-03-28T09:00:56.807Z,101040.09
2023-03-28T09:03:25.158Z,101043.84
2023-03-28T09:05:54.709Z,101039.19
2023-03-28T09:08:29.025Z,101059.38
2023-03-28T09:11:00.377Z,101062.03
2023-03-28T09:13:35.446Z,101054.75
2023-03-28T09:16:15.180Z,101040.09
2023-03-28T09:18:51.797Z,101043.88
2023-03-28T09:21:24.445Z,101055.66
2023-03-28T09:24:14.423Z,101061.84
2023-03-28T09:26:45.322Z,101058.41
2023-03-28T09:29:14.762Z,101057.50
2023-03-28T09:31:46.494Z,101058.59
2023-03-28T09:34:19.839Z,101064.72
2023-03-28T09:36:50.244Z,101053.38
2023-03-28T09:39:23.895Z,101062.78
2023-03-28T09:41:54.362Z,101060.81
2023-03-28T09:44:27.051Z,101061.88
2023-03-28T09:46:57.444Z,101060.22
2023-03-28T09:49:25.792Z,101060.91
2023-03-28T09:51:55.372Z,101066.59
2023-03-28T09:54:28.582Z,101067.19
2023-03-28T09:56:59.383Z,101061.69
2023-03-28T09:59:28.704Z,101073.91
2023-03-28T10:07:46.115Z,101072.56
2023-03-28T10:10:18.463Z,101078.19
2023-03-28T10:12:47.396Z,101081.69
2023-03-28T10:15:30.372Z,101073.94
2023-03-28T10:18:00.399Z,101074.00
2023-03-28T10:20:28.088Z,101069.31
2023-03-28T10:22:56.918Z,101082.31
2023-03-28T10:25:34.265Z,101070.81
2023-03-28T10:28:02.150Z,101079.31
2023-03-28T10:30:30.711Z,101083.03
2023-03-28T10:33:09.838Z,101072.91
2023-03-28T10:35:41.352Z,101076.19
2023-03-28T10:38:15.257Z,101082.75
2023-03-28T10:40:42.732Z,101088.31
2023-03-28T10:43:13.046Z,101079.06
2023-03-28T10:45:42.551Z,101075.94
2023-03-28T10:48:14.446Z,101085.31
2023-03-28T10:50:43.176Z,101079.13
2023-03-28T10:53:17.524Z,101086.16
2023-03-28T10:55:48.399Z,101076.13
2023-03-28T10:58:20.435Z,101088.34
2023-03-28T11:00:52.384Z,101083.31
2023-03-28T11:03:28.483Z,101079.75
2023-03-28T11:06:08.845Z,101093.41
2023-03-28T11:08:41.386Z,101096.34
2023-03-28T11:11:15.227Z,101092.91
2023-03-28T11:13:47.071Z,101081.13
2023-03-28T11:16:19.568Z,101082.03
2023-03-28T11:19:00.274Z,101080.97
2023-03-28T11:21:30.467Z,101088.81
2023-03-28T11:24:05.940Z,101069.97
2023-03-28T11:26:39.959Z,101077.69
2023-03-28T11:29:16.696Z,101081.19
2023-03-28T11:31:47.482Z,101077.22
2023-03-28T11:34:21.846Z,101085.94
2023-03-28T11:36:53.339Z,101086.44
2023-03-28T11:39:26.386Z,101087.53
2023-03-28T11:41:54.673Z,101087.63
2023-03-28T11:44:25.067Z,101078.22
2023-03-28T11:46:56.727Z,101076.34
2023-03-28T11:49:28.791Z,101063.78
2023-03-28T11:51:59.736Z,101074.91
2023-03-28T11:54:32.065Z,101058.63
2023-03-28T11:57:02.078Z,101072.72
2023-03-28T11:59:34.054Z,101069.81
2023-03-28T12:02:13.274Z,101067.22
2023-03-28T12:04:45.973Z,101067.19
2023-03-28T12:07:18.677Z,101070.63
2023-03-28T12:09:55.460Z,101069.72
2023-03-28T12:12:25.096Z,101064.47
2023-03-28T12:14:56.181Z,101070.47
2023-03-28T12:17:26.850Z,101075.00
2023-03-28T12:19:56.405Z,101065.56
2023-03-28T12:22:26.913Z,101062.28
2023-03-28T12:24:58.201Z,101060.00
2023-03-28T12:27:29.415Z,101072.38
2023-03-28T12:29:59.110Z,101066.47
2023-03-28T12:32:34.454Z,101059.88
2023-03-28T12:35:06.722Z,101058.06
2023-03-28T12:37:39.689Z,101040.69
2023-03-28T12:40:14.403Z,101044.59
2023-03-28T12:42:42.929Z,101060.19
2023-03-28T12:45:15.614Z,101055.25
2023-03-28T12:47:44.196Z,101050.59
2023-03-28T12:50:15.943Z,101065.66
2023-03-28T12:52:45.403Z,101046.63
2023-03-28T12:55:27.593Z,101049.47
2023-03-28T12:57:56.255Z,101058.63
2023-03-28T13:00:26.738Z,101049.53
2023-03-28T13:02:56.396Z,101054.75
2023-03-28T13:05:27.336Z,101052.69
2023-03-28T13:08:01.356Z,101057.59
2023-03-28T13:10:34.349Z,101052.16
2023-03-28T13:13:08.633Z,101045.41
2023-03-28T13:15:49.313Z,101052.72
2023-03-28T13:18:27.759Z,101053.59
2023-03-28T13:20:56.684Z,101045.84
2023-03-28T13:23:29.097Z,101044.66
2023-03-28T13:25:57.249Z,101060.13
2023-03-28T13:28:30.020Z,101050.56
2023-03-28T13:31:08.010Z,101050.63
2023-03-28T13:33:37.245Z,101043.13
2023-03-28T13:36:19.943Z,101047.75
2023-03-28T13:38:48.140Z,101050.84
2023-03-28T13:41:33.150Z,101054.81
2023-03-28T13:44:01.802Z,101041.44
2023-03-28T13:46:31.628Z,101042.78
2023-03-28T13:49:02.753Z,101041.22
2023-03-28T13:51:33.756Z,101048.59
2023-03-28T13:54:01.216Z,101051.69
2023-03-28T13:56:30.088Z,101050.16
2023-03-28T13:58:58.672Z,101047.75
2023-03-28T14:01:27.361Z,101043.03
2023-03-28T14:03:56.162Z,101044.41
2023-03-28T14:06:25.089Z,101060.94
2023-03-28T14:08:54.956Z,101060.94
2023-03-28T14:11:23.766Z,101044.13
2023-03-28T14:13:52.633Z,101057.00
2023-03-28T14:16:20.653Z,101053.50
2023-03-28T14:18:50.431Z,101055.88
2023-03-28T14:21:17.750Z,101054.25
2023-03-28T14:23:54.271Z,101060.41
2023-03-28T14:26:23.578Z,101064.22
2023-03-28T14:28:52.322Z,101045.44
2023-03-28T14:31:29.561Z,101043.91
2023-03-28T14:33:58.392Z,101046.59
2023-03-28T14:36:30.650Z,101050.84
2023-03-28T14:39:07.313Z,101055.34
2023-03-28T14:41:37.473Z,101057.31
2023-03-28T14:44:06.567Z,101053.25
2023-03-28T14:46:34.092Z,101050.19
2023-03-28T14:49:02.876Z,101042.25
2023-03-28T14:51:39.679Z,101055.91
2023-03-28T14:54:08.325Z,101042.16
2023-03-28T14:56:37.278Z,101035.47
2023-03-28T14:59:05.487Z,101041.88
2023-03-28T15:01:34.207Z,101040.97
2023-03-28T15:04:04.044Z,101039.84
2023-03-28T15:06:33.194Z,101042.41
2023-03-28T15:09:02.072Z,101033.97
2023-03-28T15:11:32.465Z,101040.13
2023-03-28T15:14:02.688Z,101045.16
2023-03-28T15:16:31.284Z,101047.09
2023-03-28T15:19:00.209Z,101046.47
2023-03-28T15:21:27.722Z,101045.81
2023-03-28T15:23:57.228Z,101037.88
2023-03-28T15:26:27.726Z,101040.38
2023-03-28T15:28:56.167Z,101053.09
2023-03-28T15:31:25.337Z,101049.31
2023-03-28T15:33:53.362Z,101049.56
2023-03-28T15:36:23.458Z,101052.44
2023-03-28T15:38:51.553Z,101046.28
2023-03-28T15:41:21.597Z,101054.31
2023-03-28T15:43:59.368Z,101046.81
2023-03-28T15:46:32.018Z,101053.31
2023-03-28T15:49:00.716Z,101049.47
2023-03-28T15:51:28.584Z,101055.41
2023-03-28T15:53:58.700Z,101054.81
2023-03-28T15:56:26.964Z,101058.44
2023-03-28T15:59:01.763Z,101062.09
2023-03-28T16:01:31.162Z,101059.66
2023-03-28T16:04:16.988Z,101056.47
2023-03-28T16:06:45.507Z,101062.72
2023-03-28T16:09:18.094Z,101067.69
2023-03-28T16:11:45.897Z,101069.34
2023-03-28T16:14:14.498Z,101065.25
2023-03-28T16:16:43.275Z,101061.22
2023-03-28T16:19:14.456Z,101064.75
2023-03-28T16:21:41.710Z,101070.41
2023-03-28T16:24:08.970Z,101066.34
2023-03-28T16:26:36.277Z,101071.53
2023-03-28T16:29:04.149Z,101063.75
2023-03-28T16:31:31.610Z,101071.22
2023-03-28T16:34:00.571Z,101077.03
2023-03-28T16:36:27.841Z,101070.09
2023-03-28T16:38:55.138Z,101080.44
2023-03-28T16:41:22.523Z,101076.31
2023-03-28T16:43:49.789Z,101076.66
2023-03-28T16:46:17.086Z,101082.38
2023-03-28T16:48:44.520Z,101079.53
2023-03-28T16:51:13.138Z,101081.44
2023-03-28T16:53:41.031Z,101087.59
2023-03-28T16:56:11.825Z,101083.00
2023-03-28T16:58:39.175Z,101080.09
2023-03-28T17:01:07.279Z,101082.44
2023-03-28T17:03:34.817Z,101076.44
2023-03-28T17:06:02.677Z,101077.69
2023-03-28T17:08:31.387Z,101073.75
2023-03-28T17:10:59.923Z,101076.50
2023-03-28T17:13:27.268Z,101074.41
2023-03-28T17:15:54.580Z,101079.69
2023-03-28T17:18:22.045Z,101077.22
2023-03-28T17:20:58.684Z,101079.56
2023-03-28T17:23:27.308Z,101070.22
2023-03-28T17:25:56.374Z,101065.59
2023-03-28T17:28:23.996Z,101067.59
2023-03-28T17:30:51.942Z,101074.66
2023-03-28T17:33:19.603Z,101078.75
2023-03-28T17:35:47.174Z,101077.50
2023-03-28T17:38:14.774Z,101074.09
2023-03-28T17:40:46.689Z,101079.41
2023-03-28T17:43:15.347Z,101077.59
2023-03-28T17:45:42.680Z,101073.44
2023-03-28T17:48:12.346Z,101083.19
2023-03-28T17:50:39.768Z,101087.53
2023-03-28T17:53:07.696Z,101082.75
2023-03-28T17:55:38.856Z,101086.72
2023-03-28T17:58:06.184Z,101088.22
2023-03-28T18:00:34.755Z,101086.31
2023-03-28T18:03:02.096Z,101087.72
2023-03-28T18:05:30.297Z,101090.06
2023-03-28T18:07:57.633Z,101087.81
2023-03-28T18:10:24.986Z,101089.56
2023-03-28T18:12:52.576Z,101092.88
2023-03-28T18:15:19.825Z,101087.16
2023-03-28T18:17:48.420Z,101079.44
2023-03-28T18:20:15.792Z,101078.47
2023-03-28T18:22:43.319Z,101079.50
2023-03-28T18:25:10.711Z,101080.91
2023-03-28T18:27:38.148Z,101083.91
2023-03-28T18:30:08.162Z,101088.63
2023-03-28T18:32:36.253Z,101078.41
2023-03-28T18:35:07.069Z,101088.97
2023-03-28T18:37:34.760Z,101085.97
2023-03-28T18:40:02.384Z,101083.34
2023-03-28T18:42:31.308Z,101092.31
2023-03-28T18:44:58.577Z,101091.22
2023-03-28T18:47:25.965Z,101089.09
2023-03-28T18:49:53.229Z,101087.84
2023-03-28T18:52:21.809Z,101087.78
2023-03-28T18:54:49.224Z,101092.25
2023-03-28T18:57:16.895Z,101086.34
2023-03-28T18:59:44.232Z,101097.09
2023-03-28T19:02:12.619Z,101085.38
2023-03-28T19:04:39.955Z,101081.03
2023-03-28T19:07:07.470Z,101074.66
2023-03-28T19:09:36.125Z,101082.25
2023-03-28T19:12:03.895Z,101087.97
2023-03-28T19:14:31.274Z,101085.44
2023-03-28T19:16:58.776Z,101084.88
2023-03-28T19:19:27.018Z,101082.53
2023-03-28T19:21:55.091Z,101087.75
2023-03-28T19:24:23.317Z,101094.53
2023-03-28T19:26:53.166Z,101086.06
2023-03-28T19:29:20.655Z,101087.97
2023-03-28T19:31:47.928Z,101081.91
2023-03-28T19:34:16.496Z,101088.59
2023-03-28T19:36:43.818Z,101085.34
2023-03-28T19:39:11.107Z,101088.44
2023-03-28T19:41:38.505Z,101087.25
2023-03-28T19:44:07.156Z,101082.16
2023-03-28T19:46:36.345Z,101084.78
2023-03-28T19:49:06.898Z,101087.47
2023-03-28T19:51:34.553Z,101089.13
2023-03-28T19:54:02.041Z,101081.84
2023-03-28T19:56:29.370Z,101086.75
2023-03-28T19:58:56.850Z,101081.16
2023-03-28T20:01:25.605Z,101078.81
2023-03-28T20:03:53.426Z,101080.03
2023-03-28T20:06:21.467Z,101085.19
2023-03-28T20:08:49.085Z,101082.13
2023-03-28T20:11:16.790Z,101083.53
2023-03-28T20:13:44.380Z,101083.41
2023-03-28T20:16:12.842Z,101082.41
2023-03-28T20:18:41.787Z,101077.78
2023-03-28T20:21:10.185Z,101083.53
2023-03-28T20:23:38.073Z,101081.09
2023-03-28T20:26:15.702Z,101080.13
2023-03-28T20:28:46.154Z,101075.28
2023-03-28T20:31:13.640Z,101070.34
2023-03-28T20:33:42.542Z,101071.81
2023-03-28T20:36:09.967Z,101065.53
2023-03-28T20:38:37.349Z,101057.91
2023-03-28T20:41:04.860Z,101053.72
2023-03-28T20:43:35.725Z,101057.28
2023-03-28T20:46:03.165Z,101053.94
2023-03-28T20:48:36.228Z,101043.44
2023-03-28T20:51:05.906Z,101047.94
2023-03-28T20:53:34.719Z,101039.97
2023-03-28T20:56:03.340Z,101036.03
2023-03-28T20:58:31.617Z,101032.50
2023-03-28T21:01:00.416Z,101030.88
2023-03-28T21:03:39.311Z,101024.66
2023-03-28T21:06:08.625Z,101026.72
2023-03-28T21:08:36.776Z,101023.69
2023-03-28T21:11:04.170Z,101034.00
2023-03-28T21:13:31.501Z,101021.84
2023-03-28T21:15:58.839Z,101020.72
2023-03-28T21:18:26.153Z,101013.59
2023-03-28T21:20:53.457Z,101017.91
2023-03-28T21:23:22.560Z,101015.84
2023-03-28T21:25:52.782Z,101012.88
2023-03-28T21:28:20.371Z,101011.09
2023-03-28T21:30:56.764Z,101018.31
2023-03-28T21:33:24.557Z,101029.41
2023-03-28T21:35:52.081Z,101023.56
2023-03-28T21:38:19.775Z,101043.88
2023-03-28T21:40:48.910Z,101027.16
2023-03-28T21:43:16.318Z,101024.63
2023-03-28T21:45:47.738Z,101017.59
2023-03-28T21:48:15.663Z,101015.84
2023-03-28T21:50:48.430Z,101018.56
2023-03-28T21:53:15.917Z,101013.28
2023-03-28T21:55:43.217Z,101019.78
2023-03-28T21:58:11.802Z,101021.16
2023-03-28T22:00:39.638Z,101025.78
2023-03-28T22:03:07.490Z,101023.34
2023-03-28T22:05:34.846Z,101025.59
2023-03-28T22:08:02.412Z,101023.97
2023-03-28T22:10:29.747Z,101017.59
2023-03-28T22:12:58.682Z,101018.66
2023-03-28T22:15:27.353Z,101012.25
2023-03-28T22:17:57.850Z,101007.25
2023-03-28T22:20:26.534Z,101005.16
2023-03-28T22:22:53.793Z,101001.66
2023-03-28T22:25:22.466Z,100992.16
2023-03-28T22:27:49.811Z,100985.06
2023-03-28T22:30:17.083Z,100978.22
2023-03-28T22:32:45.869Z,100976.47
2023-03-28T22:35:13.166Z,100969.44
2023-03-28T22:37:40.709Z,100980.00
2023-03-28T22:40:08.792Z,100976.28
2023-03-28T22:42:36.710Z,100984.56
2023-03-28T22:45:04.565Z,100985.84
2023-03-28T22:47:39.113Z,100987.44
2023-03-28T22:50:08.996Z,100975.06
2023-03-28T22:52:37.887Z,100975.59
2023-03-28T22:55:05.657Z,100977.38
2023-03-28T22:57:32.975Z,100975.56
2023-03-28T23:00:01.737Z,100972.84
2023-03-28T23:02:29.114Z,100970.16
2023-03-28T23:04:57.060Z,100970.22
2023-03-28T23:07:27.550Z,100968.38
2023-03-28T23:09:54.868Z,100963.09
2023-03-28T23:12:22.446Z,100960.53
2023-03-28T23:14:50.168Z,100959.44
2023-03-28T23:17:18.931Z,100957.06
2023-03-28T23:19:48.170Z,100969.53
2023-03-28T23:22:18.553Z,100968.63
2023-03-28T23:24:50.411Z,100962.34
2023-03-28T23:27:17.767Z,100964.03
2023-03-28T23:29:45.195Z,100970.16
2023-03-28T23:32:12.466Z,100962.25
2023-03-28T23:34:40.238Z,100961.53
2023-03-28T23:37:09.932Z,100974.91
2023-03-28T23:39:39.231Z,100967.09
2023-03-28T23:42:07.805Z,100963.47
2023-03-28T23:44:35.363Z,100965.69
2023-03-28T23:47:02.626Z,100969.28
2023-03-28T23:49:29.916Z,100962.16
2023-03-28T23:51:57.203Z,100955.22
2023-03-28T23:54:25.299Z,100950.50
2023-03-28T23:56:52.663Z,100951.06
2023-03-28T23:59:21.772Z,100942.50
